createdAt,value
2023-01-01T00:01:44.161Z,101950.25
2023-01-01T00:06:47.895Z,101955.47
2023-01-01T00:11:55.250Z,101890.44
2023-01-01T00:16:59.979Z,101950.41
2023-01-01T00:22:27.880Z,101930.09
2023-01-01T00:27:30.802Z,101942.16
2023-01-01T00:32:36.245Z,101938.97
2023-01-01T00:37:46.417Z,101936.53
2023-01-01T00:42:54.086Z,101949.28
2023-01-01T00:47:57.763Z,101945.16
2023-01-01T00:53:05.037Z,101948.50
2023-01-01T00:58:10.875Z,101945.84
2023-01-01T01:03:29.041Z,101949.31
2023-01-01T01:08:36.566Z,101936.75
2023-01-01T01:13:42.543Z,101940.16
2023-01-01T01:18:47.938Z,101940.00
2023-01-01T01:23:55.032Z,101937.56
2023-01-01T01:29:00.096Z,101915.44
2023-01-01T01:34:06.112Z,101922.31
2023-01-01T01:39:14.071Z,101940.34
2023-01-01T01:44:52.427Z,101926.91
2023-01-01T01:50:06.927Z,101933.78
2023-01-01T01:55:13.501Z,101934.66
2023-01-01T02:00:18.197Z,101916.66
2023-01-01T02:05:23.946Z,101923.56
2023-01-01T02:10:30.552Z,101931.16
2023-01-01T02:16:20.973Z,101932.66
2023-01-01T02:21:50.278Z,101935.91
2023-01-01T02:27:23.088Z,101941.63
2023-01-01T02:32:30.543Z,101940.59
2023-01-01T02:37:37.531Z,101936.09
2023-01-01T02:42:43.765Z,101904.31
2023-01-01T02:47:47.523Z,101883.69
2023-01-01T02:53:10.959Z,101920.13
2023-01-01T02:58:44.743Z,101924.31
2023-01-01T03:04:26.885Z,101926.72
2023-01-01T03:09:45.247Z,101915.00
2023-01-01T03:15:00.487Z,101922.66
2023-01-01T03:20:14.557Z,101915.97
2023-01-01T03:25:27.260Z,101907.78
2023-01-01T03:30:34.525Z,101904.72
2023-01-01T03:35:38.406Z,101906.63
2023-01-01T03:40:46.402Z,101899.38
2023-01-01T03:45:54.275Z,101900.47
2023-01-01T03:51:15.068Z,101900.69
2023-01-01T03:56:40.299Z,101898.28
2023-01-01T04:01:54.533Z,101892.56
2023-01-01T04:07:14.329Z,101884.13
2023-01-01T04:12:20.963Z,101900.63
2023-01-01T04:17:26.573Z,101900.06
2023-01-01T04:22:30.418Z,101895.31
2023-01-01T04:27:36.756Z,101883.63
2023-01-01T04:32:42.904Z,101882.44
2023-01-01T04:37:49.432Z,101883.66
2023-01-01T04:42:57.099Z,101884.91
2023-01-01T04:48:08.306Z,101868.16
2023-01-01T04:53:12.882Z,101873.56
2023-01-01T04:58:18.528Z,101867.81
2023-01-01T05:03:24.495Z,101867.34
2023-01-01T05:08:30.787Z,101848.06
2023-01-01T05:13:37.235Z,101859.41
2023-01-01T05:18:44.572Z,101827.22
2023-01-01T05:24:01.297Z,101837.88
2023-01-01T05:29:16.054Z,101839.88
2023-01-01T05:34:22.140Z,101837.56
2023-01-01T05:39:26.300Z,101836.97
2023-01-01T05:44:30.915Z,101840.53
2023-01-01T05:49:37.283Z,101829.72
2023-01-01T05:54:47.586Z,101832.38
2023-01-01T05:59:51.399Z,101830.00
2023-01-01T06:04:56.349Z,101813.19
2023-01-01T06:10:01.152Z,101829.50
2023-01-01T06:15:06.963Z,101817.78
2023-01-01T06:20:12.872Z,101812.06
2023-01-01T06:25:18.229Z,101795.97
2023-01-01T06:30:24.524Z,101787.66
2023-01-01T06:35:30.401Z,101797.22
2023-01-01T06:40:39.145Z,101800.66
2023-01-01T06:45:43.530Z,101786.22
2023-01-01T06:50:48.178Z,101795.00
2023-01-01T06:55:57.135Z,101785.78
2023-01-01T07:01:09.813Z,101788.59
2023-01-01T07:06:17.130Z,101786.19
2023-01-01T07:11:24.646Z,101786.28
2023-01-01T07:16:29.028Z,101780.44
2023-01-01T07:21:34.405Z,101771.19
2023-01-01T07:26:41.914Z,101765.25
2023-01-01T07:31:47.531Z,101771.41
2023-01-01T07:36:57.509Z,101776.56
2023-01-01T07:42:10.581Z,101768.09
2023-01-01T07:47:28.240Z,101770.69
2023-01-01T07:52:32.042Z,101765.59
2023-01-01T07:57:35.938Z,101732.34
2023-01-01T08:02:40.166Z,101768.25
2023-01-01T08:07:49.886Z,101768.31
2023-01-01T08:12:59.609Z,101761.53
2023-01-01T08:18:07.916Z,101756.47
2023-01-01T08:23:16.159Z,101767.56
2023-01-01T08:28:23.888Z,101737.78
2023-01-01T08:33:32.645Z,101748.06
2023-01-01T08:38:42.366Z,101764.28
2023-01-01T08:43:49.237Z,101740.44
2023-01-01T08:48:54.405Z,101732.75
2023-01-01T08:53:58.999Z,101752.44
2023-01-01T08:59:07.345Z,101739.69
2023-01-01T09:04:15.928Z,101731.16
2023-01-01T09:09:25.716Z,101749.09
2023-01-01T09:14:36.334Z,101743.97
2023-01-01T09:19:45.104Z,101740.59
2023-01-01T09:24:48.891Z,101740.59
2023-01-01T09:29:53.583Z,101749.13
2023-01-01T09:34:58.648Z,101747.44
2023-01-01T09:40:06.377Z,101746.63
2023-01-01T09:45:30.543Z,101743.19
2023-01-01T09:50:41.621Z,101739.81
2023-01-01T09:55:59.833Z,101737.25
2023-01-01T10:01:41.673Z,101749.19
2023-01-01T10:06:58.328Z,101749.19
2023-01-01T10:12:13.422Z,101750.06
2023-01-01T10:17:40.104Z,101750.06
2023-01-01T10:22:57.274Z,101755.19
2023-01-01T10:28:32.807Z,101745.78
2023-01-01T10:33:38.854Z,101717.66
2023-01-01T10:38:52.779Z,101746.66
2023-01-01T10:44:00.720Z,101744.09
2023-01-01T10:49:16.950Z,101738.94
2023-01-01T10:54:47.135Z,101738.94
2023-01-01T10:59:54.606Z,101737.28
2023-01-01T11:05:32.141Z,101744.06
2023-01-01T11:10:40.196Z,101741.50
2023-01-01T11:15:47.041Z,101739.78
2023-01-01T11:20:59.864Z,101732.13
2023-01-01T11:26:22.425Z,101735.53
2023-01-01T11:31:31.532Z,101735.56
2023-01-01T11:36:36.432Z,101732.13
2023-01-01T11:41:50.580Z,101738.94
2023-01-01T11:46:56.765Z,101726.16
2023-01-01T11:52:21.995Z,101690.34
2023-01-01T11:57:30.536Z,101718.44
2023-01-01T12:02:45.176Z,101711.63
2023-01-01T12:07:55.857Z,101727.84
2023-01-01T12:13:07.224Z,101716.75
2023-01-01T12:18:48.722Z,101723.56
2023-01-01T12:23:54.077Z,101725.28
2023-01-01T12:29:39.345Z,101719.28
2023-01-01T12:35:02.145Z,101715.84
2023-01-01T12:40:40.958Z,101720.97
2023-01-01T12:46:11.834Z,101718.41
2023-01-01T12:51:35.651Z,101727.78
2023-01-01T12:57:20.245Z,101717.56
2023-01-01T13:02:31.719Z,101709.00
2023-01-01T13:07:46.249Z,101720.06
2023-01-01T13:12:51.299Z,101708.13
2023-01-01T13:17:58.324Z,101724.34
2023-01-01T13:23:05.416Z,101712.38
2023-01-01T13:28:17.629Z,101714.03
2023-01-01T13:33:34.313Z,101716.56
2023-01-01T13:38:57.621Z,101717.41
2023-01-01T13:44:02.238Z,101710.56
2023-01-01T13:49:40.776Z,101699.47
2023-01-01T13:55:40.667Z,101700.28
2023-01-01T14:01:03.238Z,101708.81
2023-01-01T14:06:44.509Z,101707.06
2023-01-01T14:11:50.152Z,101699.41
2023-01-01T14:17:02.579Z,101707.94
2023-01-01T14:22:14.959Z,101706.19
2023-01-01T14:27:23.648Z,101710.38
2023-01-01T14:32:39.758Z,101709.47
2023-01-01T14:37:46.615Z,101715.47
2023-01-01T14:43:07.341Z,101705.16
2023-01-01T14:48:21.889Z,101709.44
2023-01-01T14:53:34.959Z,101728.19
2023-01-01T14:58:42.370Z,101723.91
2023-01-01T15:04:02.498Z,101729.91
2023-01-01T15:09:09.759Z,101737.59
2023-01-01T15:14:33.903Z,101752.16
2023-01-01T15:19:42.446Z,101753.97
2023-01-01T15:24:46.956Z,101760.00
2023-01-01T15:29:58.719Z,101760.06
2023-01-01T15:35:32.461Z,101774.63
2023-01-01T15:40:39.451Z,101769.50
2023-01-01T15:45:58.641Z,101777.22
2023-01-01T15:51:25.652Z,101790.06
2023-01-01T15:56:41.486Z,101778.13
2023-01-01T16:01:47.310Z,101794.38
2023-01-01T16:06:56.416Z,101796.13
2023-01-01T16:12:01.079Z,101802.09
2023-01-01T16:17:05.105Z,101808.06
2023-01-01T16:22:13.571Z,101825.16
2023-01-01T16:27:21.337Z,101821.75
2023-01-01T16:32:26.800Z,101820.00
2023-01-01T16:37:30.612Z,101831.94
2023-01-01T16:42:36.785Z,101830.22
2023-01-01T16:47:46.436Z,101825.94
2023-01-01T16:52:51.913Z,101852.34
2023-01-01T16:58:20.953Z,101850.56
2023-01-01T17:03:20.593Z,101857.38
2023-01-01T17:08:26.776Z,101855.63
2023-01-01T17:13:40.951Z,101863.28
2023-01-01T17:24:19.836Z,101887.88
2023-01-01T17:29:25.655Z,101882.69
2023-01-01T17:34:32.988Z,101898.81
2023-01-01T17:39:37.122Z,101905.50
2023-01-01T17:44:50.688Z,101927.47
2023-01-01T17:49:56.240Z,101930.63
2023-01-01T17:55:02.296Z,101944.88
2023-01-01T18:00:11.520Z,101931.88
2023-01-01T18:05:23.101Z,101917.09
2023-01-01T18:10:30.499Z,101945.03
2023-01-01T18:15:40.014Z,101953.41
2023-01-01T18:20:48.431Z,101945.56
2023-01-01T18:25:56.518Z,101957.34
2023-01-01T18:31:18.576Z,101940.97
2023-01-01T18:36:29.543Z,101958.84
2023-01-01T18:41:55.896Z,101961.44
2023-01-01T18:47:16.036Z,101967.44
2023-01-01T18:52:26.394Z,101971.66
2023-01-01T18:57:32.300Z,101973.25
2023-01-01T19:02:45.326Z,101977.44
2023-01-01T19:08:05.486Z,101980.72
2023-01-01T19:13:23.773Z,101981.53
2023-01-01T19:18:37.463Z,101973.78
2023-01-01T19:23:44.147Z,101972.06
2023-01-01T19:28:53.419Z,101977.00
2023-01-01T19:33:59.661Z,102002.56
2023-01-01T19:39:11.336Z,101974.28
2023-01-01T19:44:24.593Z,101979.44
2023-01-01T19:49:31.831Z,101969.06
2023-01-01T19:54:38.350Z,101980.88
2023-01-01T19:59:43.314Z,101985.16
2023-01-01T20:04:48.243Z,101960.34
2023-01-01T20:09:52.092Z,101985.00
2023-01-01T20:14:57.040Z,101979.72
2023-01-01T20:20:01.772Z,101983.88
2023-01-01T20:25:07.993Z,101986.28
2023-01-01T20:30:11.923Z,101980.22
2023-01-01T20:35:16.119Z,101986.84
2023-01-01T20:40:21.443Z,101986.75
2023-01-01T20:45:27.350Z,101972.06
2023-01-01T20:50:32.319Z,101988.19
2023-01-01T20:55:39.372Z,101991.44
2023-01-01T21:00:43.701Z,101998.97
2023-01-01T21:05:51.348Z,101998.84
2023-01-01T21:10:56.609Z,102007.28
2023-01-01T21:16:23.558Z,102016.59
2023-01-01T21:21:55.667Z,102017.31
2023-01-01T21:27:16.243Z,102006.16
2023-01-01T21:32:37.034Z,102013.75
2023-01-01T21:37:50.431Z,102015.41
2023-01-01T21:43:13.462Z,102011.09
2023-01-01T21:48:30.246Z,102009.28
2023-01-01T21:53:39.125Z,102020.19
2023-01-01T21:59:07.733Z,102021.81
2023-01-01T22:04:11.520Z,102014.84
2023-01-01T22:09:24.582Z,102018.13
2023-01-01T22:14:44.095Z,102007.91
2023-01-01T22:19:54.297Z,102016.19
2023-01-01T22:25:08.568Z,102016.91
2023-01-01T22:30:18.568Z,102008.41
2023-01-01T22:35:29.879Z,102011.66
2023-01-01T22:40:39.442Z,102019.06
2023-01-01T22:45:49.599Z,102012.13
2023-01-01T22:50:57.035Z,102006.91
2023-01-01T22:56:00.839Z,102016.81
2023-01-01T23:01:05.785Z,102023.34
2023-01-01T23:06:10.321Z,102016.59
2023-01-01T23:11:19.403Z,102016.59
2023-01-01T23:16:26.510Z,102013.28
2023-01-01T23:21:31.969Z,102017.44
2023-01-01T23:26:36.779Z,101997.81
2023-01-01T23:31:43.099Z,102006.38
2023-01-01T23:36:49.887Z,102018.94
2023-01-01T23:41:57.862Z,102027.28
2023-01-01T23:47:02.504Z,102025.56
2023-01-01T23:52:07.771Z,102017.06
2023-01-01T23:57:11.539Z,102018.72
